createdAt,value
2017-08-30T00:00:09.721Z,24.88
2017-08-30T00:00:35.834Z,24.93
2017-08-30T00:01:01.944Z,24.92
2017-08-30T00:01:28.056Z,24.86
2017-08-30T00:01:54.172Z,24.92
2017-08-30T00:02:20.397Z,25.01
2017-08-30T00:02:46.501Z,24.95
2017-08-30T00:03:12.618Z,24.93
2017-08-30T00:03:38.737Z,24.88
2017-08-30T00:04:04.847Z,24.99
2017-08-30T00:04:30.964Z,24.86
2017-08-30T00:04:57.064Z,24.95
2017-08-30T00:05:23.173Z,25.01
2017-08-30T00:05:49.297Z,25.01
2017-08-30T00:06:15.411Z,25.04
2017-08-30T00:06:41.524Z,24.86
2017-08-30T00:07:07.633Z,24.86
2017-08-30T00:07:33.742Z,24.96
2017-08-30T00:07:59.857Z,24.98
2017-08-30T00:08:25.969Z,24.88
2017-08-30T00:08:52.074Z,24.96
2017-08-30T00:09:18.178Z,24.88
2017-08-30T00:09:50.555Z,24.8
2017-08-30T00:10:16.669Z,24.88
2017-08-30T00:10:42.784Z,24.84
2017-08-30T00:11:08.892Z,24.88
2017-08-30T00:11:35.014Z,24.78
2017-08-30T00:12:01.140Z,24.77
2017-08-30T00:12:27.252Z,24.76
2017-08-30T00:12:53.357Z,24.74
2017-08-30T00:13:19.472Z,24.74
2017-08-30T00:13:45.582Z,24.8
2017-08-30T00:14:11.696Z,24.78
2017-08-30T00:14:37.803Z,24.81
2017-08-30T00:15:03.911Z,24.81
2017-08-30T00:15:30.028Z,24.85
2017-08-30T00:15:56.139Z,24.86
2017-08-30T00:16:22.245Z,24.88
2017-08-30T00:16:48.355Z,24.92
2017-08-30T00:17:14.472Z,24.88
2017-08-30T00:17:40.584Z,24.95
2017-08-30T00:18:06.691Z,24.93
2017-08-30T00:18:32.801Z,24.92
2017-08-30T00:18:58.916Z,24.86
2017-08-30T00:19:25.028Z,24.89
2017-08-30T00:19:51.154Z,24.84
2017-08-30T00:20:17.260Z,24.89
2017-08-30T00:20:43.382Z,24.84
2017-08-30T00:21:09.487Z,24.8
2017-08-30T00:21:35.600Z,24.84
2017-08-30T00:22:01.735Z,24.92
2017-08-30T00:22:27.841Z,24.86
2017-08-30T00:22:53.957Z,24.89
2017-08-30T00:23:20.063Z,24.86
2017-08-30T00:23:46.175Z,24.74
2017-08-30T00:24:12.282Z,24.84
2017-08-30T00:24:38.399Z,24.8
2017-08-30T00:25:04.517Z,24.89
2017-08-30T00:25:30.629Z,24.93
2017-08-30T00:25:56.734Z,24.89
2017-08-30T00:26:22.844Z,24.88
2017-08-30T00:26:48.960Z,24.92
2017-08-30T00:27:15.066Z,24.89
2017-08-30T00:27:41.200Z,24.95
2017-08-30T00:28:07.315Z,24.86
2017-08-30T00:28:33.428Z,24.91
2017-08-30T00:28:59.539Z,24.85
2017-08-30T00:29:25.661Z,24.88
2017-08-30T00:29:51.760Z,24.95
2017-08-30T00:30:17.876Z,24.91
2017-08-30T00:30:43.986Z,24.86
2017-08-30T00:31:10.099Z,24.88
2017-08-30T00:31:36.210Z,24.86
2017-08-30T00:32:02.327Z,25.03
2017-08-30T00:32:28.446Z,25.07
2017-08-30T00:32:54.560Z,25.03
2017-08-30T00:33:20.677Z,25.01
2017-08-30T00:33:46.775Z,25.11
2017-08-30T00:34:12.885Z,25.07
2017-08-30T00:34:39.004Z,25.01
2017-08-30T00:35:05.109Z,24.92
2017-08-30T00:35:31.222Z,24.89
2017-08-30T00:35:57.337Z,24.92
2017-08-30T00:36:23.445Z,24.86
2017-08-30T00:36:49.561Z,24.86
2017-08-30T00:37:15.670Z,24.76
2017-08-30T00:37:41.780Z,24.69
2017-08-30T00:38:07.898Z,24.69
2017-08-30T00:38:34.006Z,24.74
2017-08-30T00:39:00.119Z,24.6
2017-08-30T00:39:26.233Z,24.66
2017-08-30T00:39:52.340Z,24.68
2017-08-30T00:40:18.457Z,24.68
2017-08-30T00:40:44.563Z,24.65
2017-08-30T00:41:10.679Z,24.68
2017-08-30T00:41:36.786Z,24.63
2017-08-30T00:42:02.896Z,24.68
2017-08-30T00:42:29.029Z,24.57
2017-08-30T00:42:55.137Z,24.66
2017-08-30T00:43:21.258Z,24.65
2017-08-30T00:43:47.384Z,24.61
2017-08-30T00:44:13.500Z,24.69
2017-08-30T00:44:39.611Z,24.57
2017-08-30T00:45:05.725Z,24.61
2017-08-30T00:45:31.842Z,24.66
2017-08-30T00:45:57.957Z,24.73
2017-08-30T00:46:24.070Z,24.73
2017-08-30T00:46:50.182Z,24.74
2017-08-30T00:47:16.289Z,24.65
2017-08-30T00:47:42.402Z,24.68
2017-08-30T00:48:08.513Z,24.66
2017-08-30T00:48:34.628Z,24.69
2017-08-30T00:49:00.741Z,24.69
2017-08-30T00:49:26.853Z,24.7
2017-08-30T00:49:52.968Z,24.65
2017-08-30T00:50:19.081Z,24.68
2017-08-30T00:50:45.190Z,24.7
2017-08-30T00:51:11.298Z,24.76
2017-08-30T00:51:37.411Z,24.7
2017-08-30T00:52:03.537Z,24.7
2017-08-30T00:52:29.647Z,24.76
2017-08-30T00:52:55.769Z,24.7
2017-08-30T00:53:21.878Z,24.8
2017-08-30T00:53:47.994Z,24.68
2017-08-30T00:54:14.106Z,24.6
2017-08-30T00:54:40.208Z,24.58
2017-08-30T00:55:06.322Z,24.54
2017-08-30T00:55:32.433Z,24.57
2017-08-30T00:55:58.561Z,24.57
2017-08-30T00:56:24.668Z,24.63
2017-08-30T00:56:50.784Z,24.66
2017-08-30T00:57:16.892Z,24.68
2017-08-30T00:57:43.005Z,24.78
2017-08-30T00:58:09.112Z,24.84
2017-08-30T00:58:35.229Z,24.7
2017-08-30T00:59:01.336Z,24.66
2017-08-30T00:59:27.452Z,24.68
2017-08-30T00:59:53.563Z,24.77
2017-08-30T01:00:19.686Z,24.68
2017-08-30T01:00:45.802Z,24.61
2017-08-30T01:01:11.914Z,24.63
2017-08-30T01:01:38.018Z,24.68
2017-08-30T01:02:04.126Z,24.65
2017-08-30T01:02:30.256Z,24.66
2017-08-30T01:02:56.372Z,24.66
2017-08-30T01:03:22.477Z,24.69
2017-08-30T01:03:48.593Z,24.66
2017-08-30T01:04:14.694Z,24.63
2017-08-30T01:04:40.804Z,24.74
2017-08-30T01:05:06.919Z,24.68
2017-08-30T01:05:33.026Z,24.7
2017-08-30T01:05:59.142Z,24.8
2017-08-30T01:06:25.259Z,24.73
2017-08-30T01:06:51.366Z,24.76
2017-08-30T01:07:17.481Z,24.78
2017-08-30T01:07:43.587Z,24.76
2017-08-30T01:08:09.698Z,24.85
2017-08-30T01:08:35.804Z,24.81
2017-08-30T01:09:01.916Z,24.78
2017-08-30T01:09:28.025Z,24.8
2017-08-30T01:09:54.136Z,24.76
2017-08-30T01:10:20.251Z,24.66
2017-08-30T01:10:46.360Z,24.68
2017-08-30T01:11:12.468Z,24.63
2017-08-30T01:11:38.578Z,24.7
2017-08-30T01:12:04.694Z,24.68
2017-08-30T01:12:30.805Z,24.63
2017-08-30T01:12:56.921Z,24.69
2017-08-30T01:13:23.065Z,24.58
2017-08-30T01:13:49.158Z,24.66
2017-08-30T01:14:15.265Z,24.69
2017-08-30T01:14:41.374Z,24.57
2017-08-30T01:15:07.485Z,24.58
2017-08-30T01:15:33.603Z,24.57
2017-08-30T01:15:59.717Z,24.51
2017-08-30T01:16:25.829Z,24.61
2017-08-30T01:16:51.941Z,24.73
2017-08-30T01:17:18.044Z,24.63
2017-08-30T01:17:44.153Z,24.68
2017-08-30T01:18:10.265Z,24.73
2017-08-30T01:18:36.372Z,24.58
2017-08-30T01:19:02.509Z,24.6
2017-08-30T01:19:28.613Z,24.73
2017-08-30T01:19:54.729Z,24.66
2017-08-30T01:20:20.842Z,24.68
2017-08-30T01:20:46.950Z,24.68
2017-08-30T01:21:13.065Z,24.66
2017-08-30T01:21:39.175Z,24.69
2017-08-30T01:22:05.287Z,24.63
2017-08-30T01:22:31.393Z,24.65
2017-08-30T01:22:57.510Z,24.68
2017-08-30T01:23:23.616Z,24.57
2017-08-30T01:23:49.724Z,24.65
2017-08-30T01:24:15.837Z,24.65
2017-08-30T01:24:41.944Z,24.6
2017-08-30T01:25:08.061Z,24.66
2017-08-30T01:25:34.166Z,24.63
2017-08-30T01:26:00.305Z,24.68
2017-08-30T01:26:26.392Z,24.66
2017-08-30T01:26:52.498Z,24.65
2017-08-30T01:27:18.616Z,24.74
2017-08-30T01:27:44.722Z,24.66
2017-08-30T01:28:10.848Z,24.69
2017-08-30T01:28:36.965Z,24.7
2017-08-30T01:29:03.071Z,24.61
2017-08-30T01:29:29.187Z,24.66
2017-08-30T01:29:55.303Z,24.61
2017-08-30T01:30:21.415Z,24.63
2017-08-30T01:30:47.527Z,24.69
2017-08-30T01:31:13.630Z,24.63
2017-08-30T01:31:39.739Z,24.66
2017-08-30T01:32:05.854Z,24.66
2017-08-30T01:32:31.963Z,24.69
2017-08-30T01:32:58.072Z,24.69
2017-08-30T01:33:24.176Z,24.66
2017-08-30T01:33:50.292Z,24.68
2017-08-30T01:34:16.395Z,24.78
2017-08-30T01:34:42.519Z,24.77
2017-08-30T01:35:08.625Z,24.73
2017-08-30T01:35:34.738Z,24.76
2017-08-30T01:36:00.847Z,24.66
2017-08-30T01:36:26.954Z,24.77
2017-08-30T01:36:53.074Z,24.81
2017-08-30T01:37:19.188Z,24.69
2017-08-30T01:37:45.293Z,24.65
2017-08-30T01:38:11.406Z,24.66
2017-08-30T01:38:37.515Z,24.65
2017-08-30T01:39:03.624Z,24.6
2017-08-30T01:39:29.731Z,24.69
2017-08-30T01:39:55.871Z,24.66
2017-08-30T01:40:21.979Z,24.66
2017-08-30T01:40:48.084Z,24.65
2017-08-30T01:41:14.192Z,24.65
2017-08-30T01:41:40.306Z,24.74
2017-08-30T01:42:06.415Z,24.69
2017-08-30T01:42:32.530Z,24.73
2017-08-30T01:42:58.643Z,24.65
2017-08-30T01:43:24.749Z,24.66
2017-08-30T01:43:50.863Z,24.55
2017-08-30T01:44:16.970Z,24.58
2017-08-30T01:44:43.078Z,24.68
2017-08-30T01:45:09.193Z,24.65
2017-08-30T01:45:35.300Z,24.65
2017-08-30T01:46:01.417Z,24.74
2017-08-30T01:46:27.523Z,24.65
2017-08-30T01:46:53.639Z,24.65
2017-08-30T01:47:19.752Z,24.63
2017-08-30T01:47:45.857Z,24.65
2017-08-30T01:48:11.972Z,24.68
2017-08-30T01:48:38.080Z,24.68
2017-08-30T01:49:04.191Z,24.66
2017-08-30T01:49:30.303Z,24.74
2017-08-30T01:49:56.420Z,24.78
2017-08-30T01:50:22.541Z,24.69
2017-08-30T01:50:48.654Z,24.7
2017-08-30T01:51:14.783Z,24.69
2017-08-30T01:51:40.889Z,24.57
2017-08-30T01:52:06.999Z,24.69
2017-08-30T01:52:33.114Z,24.69
2017-08-30T01:52:59.222Z,24.65
2017-08-30T01:53:25.336Z,24.55
2017-08-30T01:53:51.443Z,24.58
2017-08-30T01:54:17.555Z,24.57
2017-08-30T01:54:43.662Z,24.65
2017-08-30T01:55:09.785Z,24.63
2017-08-30T01:55:35.879Z,24.63
2017-08-30T01:56:01.983Z,24.6
2017-08-30T01:56:28.095Z,24.61
2017-08-30T01:56:54.210Z,24.7
2017-08-30T01:57:20.326Z,24.69
2017-08-30T01:57:46.435Z,24.63
2017-08-30T01:58:12.546Z,24.63
2017-08-30T01:58:38.660Z,24.63
2017-08-30T01:59:04.773Z,24.66
2017-08-30T01:59:30.880Z,24.63
2017-08-30T01:59:56.990Z,24.68
2017-08-30T02:00:23.103Z,24.63
2017-08-30T02:00:49.228Z,24.57
2017-08-30T02:01:15.336Z,24.58
2017-08-30T02:01:41.443Z,24.68
2017-08-30T02:02:07.564Z,24.65
2017-08-30T02:02:33.674Z,24.69
2017-08-30T02:02:59.781Z,24.63
2017-08-30T02:03:25.893Z,24.7
2017-08-30T02:03:52.009Z,24.77
2017-08-30T02:04:18.114Z,24.77
2017-08-30T02:04:44.222Z,24.78
2017-08-30T02:05:10.338Z,24.81
2017-08-30T02:05:36.443Z,24.81
2017-08-30T02:06:02.558Z,24.74
2017-08-30T02:06:28.671Z,24.8
2017-08-30T02:06:54.778Z,24.76
2017-08-30T02:07:20.894Z,24.66
2017-08-30T02:07:47.002Z,24.65
2017-08-30T02:08:13.108Z,24.66
2017-08-30T02:08:39.224Z,24.66
2017-08-30T02:09:05.336Z,24.66
2017-08-30T02:09:31.446Z,24.66
2017-08-30T02:09:57.551Z,24.66
2017-08-30T02:10:23.666Z,24.7
2017-08-30T02:10:49.777Z,24.66
2017-08-30T02:11:15.885Z,24.58
2017-08-30T02:11:42.000Z,24.55
2017-08-30T02:12:08.105Z,24.6
2017-08-30T02:12:34.221Z,24.57
2017-08-30T02:13:00.326Z,24.54
2017-08-30T02:13:26.436Z,24.51
2017-08-30T02:13:52.546Z,24.6
2017-08-30T02:14:18.655Z,24.63
2017-08-30T02:14:44.767Z,24.63
2017-08-30T02:15:10.877Z,24.66
2017-08-30T02:15:36.982Z,24.7
2017-08-30T02:16:03.102Z,24.73
2017-08-30T02:16:29.231Z,24.76
2017-08-30T02:16:55.337Z,24.68
2017-08-30T02:17:21.451Z,24.7
2017-08-30T02:17:47.566Z,24.78
2017-08-30T02:18:13.675Z,24.69
2017-08-30T02:18:39.786Z,24.73
2017-08-30T02:19:05.895Z,24.73
2017-08-30T02:19:32.002Z,24.7
2017-08-30T02:19:58.110Z,24.8
2017-08-30T02:20:24.221Z,24.8
2017-08-30T02:20:50.349Z,24.74
2017-08-30T02:21:16.460Z,24.78
2017-08-30T02:21:42.568Z,24.78
2017-08-30T02:22:08.685Z,24.88
2017-08-30T02:22:34.791Z,24.84
2017-08-30T02:23:00.900Z,24.81
2017-08-30T02:23:27.014Z,24.76
2017-08-30T02:23:53.144Z,24.85
2017-08-30T02:24:19.253Z,24.81
2017-08-30T02:24:45.366Z,24.86
2017-08-30T02:25:11.472Z,24.86
2017-08-30T02:25:37.583Z,24.85
2017-08-30T02:26:03.698Z,24.85
2017-08-30T02:26:29.805Z,24.78
2017-08-30T02:26:55.917Z,24.8
2017-08-30T02:27:22.032Z,24.76
2017-08-30T02:27:48.142Z,24.61
2017-08-30T02:28:14.247Z,24.7
2017-08-30T02:28:40.383Z,24.73
2017-08-30T02:29:06.495Z,24.7
2017-08-30T02:29:32.599Z,24.63
2017-08-30T02:29:58.715Z,24.66
2017-08-30T02:30:24.823Z,24.7
2017-08-30T02:30:50.929Z,24.68
2017-08-30T02:31:17.042Z,24.65
2017-08-30T02:31:43.154Z,24.66
2017-08-30T02:32:09.282Z,24.77
2017-08-30T02:32:35.389Z,24.65
2017-08-30T02:33:01.503Z,24.74
2017-08-30T02:33:27.630Z,24.69
2017-08-30T02:33:53.736Z,24.68
2017-08-30T02:34:19.850Z,24.66
2017-08-30T02:34:45.976Z,24.74
2017-08-30T02:35:12.084Z,24.77
2017-08-30T02:35:38.201Z,24.76
2017-08-30T02:36:04.305Z,24.8
2017-08-30T02:36:30.421Z,24.81
2017-08-30T02:36:56.528Z,24.76
2017-08-30T02:37:22.639Z,24.8
2017-08-30T02:37:48.750Z,24.77
2017-08-30T02:38:14.881Z,24.86
2017-08-30T02:38:40.996Z,24.85
2017-08-30T02:39:07.102Z,24.76
2017-08-30T02:39:33.215Z,24.8
2017-08-30T02:39:59.326Z,24.78
2017-08-30T02:40:25.429Z,24.85
2017-08-30T02:40:51.542Z,24.81
2017-08-30T02:41:17.652Z,24.85
2017-08-30T02:41:43.762Z,24.77
2017-08-30T02:42:09.903Z,24.81
2017-08-30T02:42:35.983Z,24.85
2017-08-30T02:43:02.100Z,24.8
2017-08-30T02:43:28.227Z,24.69
2017-08-30T02:43:54.334Z,24.66
2017-08-30T02:44:20.468Z,24.63
2017-08-30T02:44:46.573Z,24.66
2017-08-30T02:45:12.683Z,24.73
2017-08-30T02:45:38.797Z,24.68
2017-08-30T02:46:04.899Z,24.65
2017-08-30T02:46:31.010Z,24.69
2017-08-30T02:46:57.139Z,24.63
2017-08-30T02:47:23.252Z,24.68
2017-08-30T02:47:49.360Z,24.73
2017-08-30T02:48:15.496Z,24.54
2017-08-30T02:48:41.620Z,24.58
2017-08-30T02:49:07.728Z,24.55
2017-08-30T02:49:33.843Z,24.53
2017-08-30T02:49:59.950Z,24.5
2017-08-30T02:50:26.065Z,24.45
2017-08-30T02:50:52.190Z,24.42
2017-08-30T02:51:18.306Z,24.42
2017-08-30T02:51:44.420Z,24.36
2017-08-30T02:52:10.528Z,24.36
2017-08-30T02:52:36.641Z,24.43
2017-08-30T02:53:02.747Z,24.45
2017-08-30T02:53:28.854Z,24.48
2017-08-30T02:53:54.984Z,24.51
2017-08-30T02:54:21.098Z,24.51
2017-08-30T02:54:47.202Z,24.51
2017-08-30T02:55:13.312Z,24.48
2017-08-30T02:55:39.426Z,24.54
2017-08-30T02:56:05.539Z,24.61
2017-08-30T02:56:31.644Z,24.69
2017-08-30T02:56:57.761Z,24.66
2017-08-30T02:57:23.887Z,24.66
2017-08-30T02:57:50.004Z,24.73
2017-08-30T02:58:16.111Z,24.57
2017-08-30T02:58:42.237Z,24.57
2017-08-30T02:59:08.348Z,24.57
2017-08-30T02:59:34.456Z,24.58
2017-08-30T03:00:00.570Z,24.6
2017-08-30T03:00:26.671Z,24.65
2017-08-30T03:00:52.788Z,24.63
2017-08-30T03:01:18.903Z,24.6
2017-08-30T03:01:45.015Z,24.57
2017-08-30T03:02:11.122Z,24.57
2017-08-30T03:02:37.241Z,24.5
2017-08-30T03:03:03.343Z,24.55
2017-08-30T03:03:29.458Z,24.42
2017-08-30T03:03:55.564Z,24.47
2017-08-30T03:04:21.678Z,24.42
2017-08-30T03:04:47.786Z,24.39
2017-08-30T03:05:13.894Z,24.42
2017-08-30T03:05:40.007Z,24.4
2017-08-30T03:06:06.115Z,24.35
2017-08-30T03:06:32.231Z,24.5
2017-08-30T03:06:58.342Z,24.48
2017-08-30T03:07:24.456Z,24.39
2017-08-30T03:07:50.577Z,24.45
2017-08-30T03:08:16.687Z,24.61
2017-08-30T03:08:42.797Z,24.54
2017-08-30T03:09:08.912Z,24.58
2017-08-30T03:09:35.014Z,24.65
2017-08-30T03:10:01.133Z,24.58
2017-08-30T03:10:27.238Z,24.6
2017-08-30T03:10:53.350Z,24.63
2017-08-30T03:11:19.468Z,24.68
2017-08-30T03:11:45.580Z,24.73
2017-08-30T03:12:11.694Z,24.7
2017-08-30T03:12:37.795Z,24.65
2017-08-30T03:13:03.910Z,24.65
2017-08-30T03:13:30.022Z,24.69
2017-08-30T03:13:56.134Z,24.7
2017-08-30T03:14:22.237Z,24.69
2017-08-30T03:14:48.352Z,24.7
2017-08-30T03:15:14.463Z,24.63
2017-08-30T03:15:40.564Z,24.69
2017-08-30T03:16:06.680Z,24.69
2017-08-30T03:16:32.780Z,24.65
2017-08-30T03:16:58.894Z,24.57
2017-08-30T03:17:25.002Z,24.61
2017-08-30T03:17:51.118Z,24.61
2017-08-30T03:18:17.229Z,24.65
2017-08-30T03:18:43.345Z,24.58
2017-08-30T03:19:09.446Z,24.54
2017-08-30T03:19:35.578Z,24.48
2017-08-30T03:20:01.690Z,24.54
2017-08-30T03:20:27.802Z,24.45
2017-08-30T03:20:53.912Z,24.48
2017-08-30T03:21:20.022Z,24.43
2017-08-30T03:21:46.127Z,24.42
2017-08-30T03:22:12.242Z,24.43
2017-08-30T03:22:38.350Z,24.4
2017-08-30T03:23:04.460Z,24.38
2017-08-30T03:23:30.566Z,24.51
2017-08-30T03:23:56.678Z,24.53
2017-08-30T03:24:22.791Z,24.48
2017-08-30T03:24:48.904Z,24.51
2017-08-30T03:25:15.009Z,24.55
2017-08-30T03:25:41.118Z,24.6
2017-08-30T03:26:07.235Z,24.65
2017-08-30T03:26:33.342Z,24.55
2017-08-30T03:26:59.454Z,24.6
2017-08-30T03:27:25.564Z,24.69
2017-08-30T03:27:51.680Z,24.69
2017-08-30T03:28:17.795Z,24.61
2017-08-30T03:28:43.901Z,24.63
2017-08-30T03:29:10.034Z,24.6
2017-08-30T03:29:36.143Z,24.68
2017-08-30T03:30:02.257Z,24.63
2017-08-30T03:30:28.364Z,24.66
2017-08-30T03:30:54.469Z,24.69
2017-08-30T03:31:20.585Z,24.65
2017-08-30T03:31:46.698Z,24.69
2017-08-30T03:32:12.803Z,24.69
2017-08-30T03:32:38.920Z,24.8
2017-08-30T03:33:05.027Z,24.69
2017-08-30T03:33:31.142Z,24.77
2017-08-30T03:33:57.249Z,24.7
2017-08-30T03:34:23.380Z,24.77
2017-08-30T03:34:49.490Z,24.73
2017-08-30T03:35:15.602Z,24.8
2017-08-30T03:35:41.710Z,24.84
2017-08-30T03:36:07.823Z,24.78
2017-08-30T03:36:33.925Z,24.84
2017-08-30T03:37:00.035Z,24.89
2017-08-30T03:37:26.158Z,24.89
2017-08-30T03:37:52.292Z,24.92
2017-08-30T03:38:18.400Z,24.95
2017-08-30T03:38:44.515Z,24.88
2017-08-30T03:39:10.618Z,24.88
2017-08-30T03:39:36.726Z,24.88
2017-08-30T03:40:02.837Z,24.99
2017-08-30T03:40:28.945Z,24.98
2017-08-30T03:40:55.060Z,24.88
2017-08-30T03:41:21.175Z,24.91
2017-08-30T03:41:47.286Z,24.91
2017-08-30T03:42:13.396Z,24.86
2017-08-30T03:42:39.512Z,24.84
2017-08-30T03:43:05.620Z,24.77
2017-08-30T03:43:31.733Z,24.88
2017-08-30T03:43:57.845Z,24.81
2017-08-30T03:44:23.956Z,24.84
2017-08-30T03:44:50.060Z,24.88
2017-08-30T03:45:16.178Z,24.86
2017-08-30T03:45:42.293Z,24.86
2017-08-30T03:46:08.394Z,24.8
2017-08-30T03:46:34.509Z,24.77
2017-08-30T03:47:00.618Z,24.81
2017-08-30T03:47:26.722Z,24.8
2017-08-30T03:47:52.834Z,24.78
2017-08-30T03:48:18.949Z,24.8
2017-08-30T03:48:45.055Z,24.8
2017-08-30T03:49:11.171Z,24.76
2017-08-30T03:49:37.278Z,24.89
2017-08-30T03:50:03.388Z,24.84
2017-08-30T03:50:29.502Z,24.88
2017-08-30T03:50:55.607Z,24.85
2017-08-30T03:51:21.723Z,24.89
2017-08-30T03:51:47.835Z,24.84
2017-08-30T03:52:13.940Z,24.85
2017-08-30T03:52:40.056Z,24.89
2017-08-30T03:53:06.163Z,24.8
2017-08-30T03:53:32.271Z,24.78
2017-08-30T03:53:58.386Z,24.76
2017-08-30T03:54:24.497Z,24.76
2017-08-30T03:54:50.608Z,24.66
2017-08-30T03:55:16.724Z,24.77
2017-08-30T03:55:42.829Z,24.73
2017-08-30T03:56:08.941Z,24.65
2017-08-30T03:56:35.057Z,24.66
2017-08-30T03:57:01.170Z,24.65
2017-08-30T03:57:27.275Z,24.6
2017-08-30T03:57:53.404Z,24.63
2017-08-30T03:58:19.516Z,24.61
2017-08-30T03:58:45.622Z,24.6
2017-08-30T03:59:11.732Z,24.68
2017-08-30T03:59:37.838Z,24.69
2017-08-30T04:00:03.958Z,24.66
2017-08-30T04:00:30.056Z,24.69
2017-08-30T04:00:56.164Z,24.65
2017-08-30T04:01:22.281Z,24.66
2017-08-30T04:01:48.393Z,24.69
2017-08-30T04:02:14.508Z,24.66
2017-08-30T04:02:40.617Z,24.68
2017-08-30T04:03:06.740Z,24.66
2017-08-30T04:03:32.858Z,24.54
2017-08-30T04:03:58.966Z,24.48
2017-08-30T04:04:25.072Z,24.47
2017-08-30T04:04:51.183Z,24.53
2017-08-30T04:05:17.297Z,24.32
2017-08-30T04:05:43.408Z,24.3
2017-08-30T04:06:09.512Z,24.18
2017-08-30T04:06:35.628Z,24.17
2017-08-30T04:07:01.733Z,24.14
2017-08-30T04:07:27.845Z,24.18
2017-08-30T04:07:53.961Z,24.21
2017-08-30T04:08:20.071Z,24.13
2017-08-30T04:08:46.176Z,24.08
2017-08-30T04:09:12.305Z,24.05
2017-08-30T04:09:38.439Z,23.99
2017-08-30T04:10:04.544Z,23.96
2017-08-30T04:10:30.678Z,23.88
2017-08-30T04:10:56.784Z,23.96
2017-08-30T04:11:22.899Z,23.83
2017-08-30T04:11:49.004Z,23.8
2017-08-30T04:12:15.119Z,23.77
2017-08-30T04:12:41.233Z,23.66
2017-08-30T04:13:07.359Z,23.71
2017-08-30T04:13:33.473Z,23.62
2017-08-30T04:13:59.580Z,23.68
2017-08-30T04:14:25.695Z,23.65
2017-08-30T04:14:51.804Z,23.62
2017-08-30T04:15:17.914Z,23.58
2017-08-30T04:15:44.020Z,23.69
2017-08-30T04:16:10.127Z,23.71
2017-08-30T04:16:36.259Z,23.78
2017-08-30T04:17:02.353Z,23.8
2017-08-30T04:17:28.459Z,23.83
2017-08-30T04:17:54.577Z,23.88
2017-08-30T04:18:20.684Z,23.88
2017-08-30T04:18:46.807Z,23.96
2017-08-30T04:19:12.922Z,23.99
2017-08-30T04:19:39.027Z,24.01
2017-08-30T04:20:05.136Z,24.01
2017-08-30T04:20:31.247Z,24.11
2017-08-30T04:20:57.359Z,24.03
2017-08-30T04:21:23.472Z,24.1
2017-08-30T04:21:49.581Z,24.02
2017-08-30T04:22:15.689Z,24.08
2017-08-30T04:22:41.797Z,24.14
2017-08-30T04:23:07.916Z,24.14
2017-08-30T04:23:34.023Z,24.11
2017-08-30T04:24:00.134Z,24.18
2017-08-30T04:24:26.242Z,24.16
2017-08-30T04:24:52.348Z,24.23
2017-08-30T04:25:18.460Z,24.3
2017-08-30T04:25:44.579Z,24.29
2017-08-30T04:26:10.689Z,24.26
2017-08-30T04:26:36.807Z,24.24
2017-08-30T04:27:02.918Z,24.29
2017-08-30T04:27:29.019Z,24.29
2017-08-30T04:27:55.135Z,24.32
2017-08-30T04:28:21.248Z,24.29
2017-08-30T04:28:47.354Z,24.28
2017-08-30T04:29:13.465Z,24.17
2017-08-30T04:29:39.570Z,24.23
2017-08-30T04:30:05.680Z,24.24
2017-08-30T04:30:31.794Z,24.2
2017-08-30T04:30:57.902Z,24.3
2017-08-30T04:31:24.018Z,24.32
2017-08-30T04:31:50.130Z,24.26
2017-08-30T04:32:16.234Z,24.32
2017-08-30T04:32:42.350Z,24.29
2017-08-30T04:33:08.456Z,24.35
2017-08-30T04:33:34.565Z,24.28
2017-08-30T04:34:00.679Z,24.32
2017-08-30T04:34:26.791Z,24.3
2017-08-30T04:34:52.897Z,24.32
2017-08-30T04:35:19.005Z,24.33
2017-08-30T04:35:45.120Z,24.3
2017-08-30T04:36:11.244Z,24.3
2017-08-30T04:36:37.356Z,24.29
2017-08-30T04:37:03.474Z,24.28
2017-08-30T04:37:29.595Z,24.26
2017-08-30T04:37:55.712Z,24.28
2017-08-30T04:38:21.814Z,24.28
2017-08-30T04:38:47.923Z,24.21
2017-08-30T04:39:14.036Z,24.2
2017-08-30T04:39:40.143Z,24.24
2017-08-30T04:40:06.256Z,24.21
2017-08-30T04:40:32.371Z,24.18
2017-08-30T04:40:58.488Z,24.24
2017-08-30T04:41:24.592Z,24.32
2017-08-30T04:41:50.706Z,24.24
2017-08-30T04:42:16.811Z,24.32
2017-08-30T04:42:42.915Z,24.23
2017-08-30T04:43:09.031Z,24.2
2017-08-30T04:43:35.135Z,24.16
2017-08-30T04:44:01.245Z,24.2
2017-08-30T04:44:27.359Z,24.17
2017-08-30T04:44:53.465Z,24.13
2017-08-30T04:45:19.579Z,24.16
2017-08-30T04:45:45.694Z,24.08
2017-08-30T04:46:11.815Z,24.05
2017-08-30T04:46:37.936Z,24.05
2017-08-30T04:47:04.042Z,24.02
2017-08-30T04:47:30.165Z,24.03
2017-08-30T04:47:56.256Z,24.1
2017-08-30T04:48:22.372Z,24.06
2017-08-30T04:48:48.475Z,24.06
2017-08-30T04:49:14.588Z,24.03
2017-08-30T04:49:40.696Z,24.11
2017-08-30T04:50:06.805Z,24.06
2017-08-30T04:50:32.917Z,24.14
2017-08-30T04:50:59.025Z,24.1
2017-08-30T04:51:25.138Z,24.03
2017-08-30T04:51:51.251Z,24.05
2017-08-30T04:52:17.356Z,24.02
2017-08-30T04:52:43.473Z,23.98
2017-08-30T04:53:09.582Z,24.01
2017-08-30T04:53:35.688Z,24.01
2017-08-30T04:54:01.806Z,23.92
2017-08-30T04:54:27.913Z,24.03
2017-08-30T04:54:54.027Z,23.88
2017-08-30T04:55:20.140Z,23.91
2017-08-30T04:55:46.245Z,23.84
2017-08-30T04:56:12.352Z,23.83
2017-08-30T04:56:38.488Z,23.86
2017-08-30T04:57:04.579Z,23.87
2017-08-30T04:57:30.685Z,23.96
2017-08-30T04:57:56.794Z,23.88
2017-08-30T04:58:22.909Z,23.99
2017-08-30T04:58:49.014Z,23.95
2017-08-30T04:59:15.148Z,23.88
2017-08-30T04:59:41.278Z,23.98
2017-08-30T05:00:07.366Z,24.01
2017-08-30T05:00:33.478Z,24.02
2017-08-30T05:00:59.590Z,23.95
2017-08-30T05:01:25.695Z,24.02
2017-08-30T05:01:51.802Z,23.99
2017-08-30T05:02:17.916Z,23.96
2017-08-30T05:02:44.021Z,24.11
2017-08-30T05:03:10.135Z,23.95
2017-08-30T05:03:36.244Z,23.88
2017-08-30T05:04:02.353Z,23.88
2017-08-30T05:04:28.464Z,23.83
2017-08-30T05:04:54.575Z,23.77
2017-08-30T05:05:20.691Z,23.84
2017-08-30T05:05:46.803Z,23.88
2017-08-30T05:06:12.914Z,23.76
2017-08-30T05:06:39.028Z,23.8
2017-08-30T05:07:05.139Z,23.76
2017-08-30T05:07:31.254Z,23.81
2017-08-30T05:07:57.366Z,23.81
2017-08-30T05:08:23.481Z,23.8
2017-08-30T05:08:49.589Z,23.77
2017-08-30T05:09:15.699Z,23.87
2017-08-30T05:09:41.804Z,23.8
2017-08-30T05:10:07.918Z,23.87
2017-08-30T05:10:34.027Z,23.93
2017-08-30T05:11:00.139Z,23.96
2017-08-30T05:11:26.248Z,23.91
2017-08-30T05:11:52.358Z,23.88
2017-08-30T05:12:18.475Z,23.93
2017-08-30T05:12:44.579Z,23.98
2017-08-30T05:13:10.694Z,23.95
2017-08-30T05:13:36.799Z,23.93
2017-08-30T05:14:02.914Z,23.83
2017-08-30T05:14:29.024Z,23.95
2017-08-30T05:14:55.133Z,23.86
2017-08-30T05:15:21.239Z,23.91
2017-08-30T05:15:47.354Z,23.83
2017-08-30T05:16:13.472Z,23.83
2017-08-30T05:16:39.608Z,23.77
2017-08-30T05:17:05.723Z,23.68
2017-08-30T05:17:31.831Z,23.63
2017-08-30T05:17:57.938Z,23.69
2017-08-30T05:18:24.053Z,23.62
2017-08-30T05:18:50.157Z,23.69
2017-08-30T05:19:16.271Z,23.61
2017-08-30T05:19:42.385Z,23.62
2017-08-30T05:20:08.491Z,23.48
2017-08-30T05:20:34.600Z,23.59
2017-08-30T05:21:00.714Z,23.59
2017-08-30T05:21:26.829Z,23.41
2017-08-30T05:21:52.934Z,23.43
2017-08-30T05:22:19.049Z,23.28
2017-08-30T05:22:45.154Z,23.25
2017-08-30T05:23:11.269Z,23.17
2017-08-30T05:23:37.375Z,23.2
2017-08-30T05:24:03.482Z,23.13
2017-08-30T05:24:29.600Z,23.13
2017-08-30T05:24:55.703Z,23.09
2017-08-30T05:25:21.817Z,23.09
2017-08-30T05:25:47.929Z,23.08
2017-08-30T05:26:14.044Z,23.06
2017-08-30T05:26:40.173Z,23.05
2017-08-30T05:27:06.261Z,23.02
2017-08-30T05:27:32.374Z,23.13
2017-08-30T05:27:58.478Z,23.13
2017-08-30T05:28:24.590Z,23.05
2017-08-30T05:28:50.701Z,23.03
2017-08-30T05:29:16.806Z,23.02
2017-08-30T05:29:42.921Z,22.9
2017-08-30T05:30:09.025Z,22.88
2017-08-30T05:30:35.140Z,22.94
2017-08-30T05:31:01.253Z,22.94
2017-08-30T05:31:27.360Z,22.93
2017-08-30T05:31:53.481Z,22.9
2017-08-30T05:32:19.590Z,22.94
2017-08-30T05:32:45.698Z,22.88
2017-08-30T05:33:11.807Z,22.94
2017-08-30T05:33:37.912Z,22.9
2017-08-30T05:34:04.030Z,22.91
2017-08-30T05:34:30.158Z,22.9
2017-08-30T05:34:56.271Z,23.05
2017-08-30T05:35:22.385Z,23.02
2017-08-30T05:35:48.489Z,23.03
2017-08-30T05:36:14.647Z,23.08
2017-08-30T05:36:40.723Z,23.05
2017-08-30T05:37:06.878Z,22.99
2017-08-30T05:37:32.993Z,22.98